Flight Track Log - Related Links

Times and Time Zones

All times are in EDT time to prevent confusion due to time zone crossing. See the UAL5915 flight status page for this flight to view local times or setup timezone preferences in your user account.

Time Position Orientation Groundspeed Altitude Reporting Facility
EDT Latitude Longitude Course Direction KTS MPH feet Rate Location/Type
Wed 02:59:10 PM 36.1969 -95.8581 98° East 178 205 1,300  Level Kansas City Center
Wed 03:00:29 PM 36.1875 -95.7739 98° East 214 246 3,800 1,884 Climbing Kansas City Center
Wed 03:01:11 PM 36.1758 -95.7228 106° East 218 251 5,100 2,300 Climbing Kansas City Center
Wed 03:01:29 PM 36.1656 -95.6914 112° Southeast 266 306 6,100 2,063 Climbing Kansas City Center
Wed 03:02:15 PM 36.1586 -95.6331 98° East 269 310 7,300 2,057 Climbing Kansas City Center
Wed 03:03:14 PM 36.1375 -95.5372 105° East 287 330 9,700 1,742 Climbing Kansas City Center
Wed 03:04:19 PM 36.1106 -95.4089 105° East 318 366 10,900 1,228 Climbing Kansas City Center
Wed 03:05:21 PM 36.0842 -95.2844 105° East 368 423 12,300 1,672 Climbing Kansas City Center
Wed 03:06:21 PM 36.0572 -95.1600 105° East 376 433 14,300 1,969 Climbing Kansas City Center
Wed 03:07:29 PM 36.0239 -95.0125 106° East 369 425 16,500 1,734 Climbing Memphis Center
Wed 03:08:29 PM 36.0244 -94.8842 90° East 369 425 18,000 1,500 Climbing Memphis Center
Wed 03:09:29 PM 36.0292 -94.7483 87° East 374 430 19,500 1,450 Climbing Memphis Center
Wed 03:10:29 PM 36.0339 -94.6100 88° East 385 443 20,900 1,750 Climbing Memphis Center
Wed 03:11:29 PM 36.0386 -94.4717 88° East 397 457 23,000 2,050 Climbing Memphis Center
Wed 03:12:29 PM 36.0431 -94.3358 88° East 397 457 25,000 1,750 Climbing Memphis Center
Wed 03:13:29 PM 36.0494 -94.2028 87° East 392 451 26,500 1,550 Climbing Memphis Center
Wed 03:14:29 PM 36.0533 -94.0744 88° East 387 445 28,100 1,500 Climbing Memphis Center
Wed 03:15:29 PM 36.0547 -93.9539 89° East 387 445 29,500 1,250 Climbing Memphis Center
Wed 03:16:29 PM 36.0583 -93.8206 88° East 387 445 30,600 1,100 Climbing Memphis Center
Wed 03:17:29 PM 36.0622 -93.6872 88° East 387 445 31,700 1,100 Climbing Memphis Center
Wed 03:18:29 PM 36.0656 -93.5511 88° East 387 445 32,800 1,050 Climbing Memphis Center
Wed 03:19:29 PM 36.0711 -93.4128 87° East 387 445 33,800 850 Climbing Memphis Center
Wed 03:20:29 PM 36.1017 -93.2778 74° East 392 451 34,500 600 Climbing Memphis Center
Wed 03:21:29 PM 36.1194 -93.1372 81° East 397 457 35,000 250 Climbing Memphis Center
Wed 03:22:29 PM 36.1219 -93.0164 88° East 356 410 35,000  Level Memphis Center
Wed 03:23:29 PM 36.1278 -92.8342 88° East 438 504 35,000  Level Memphis Center
Wed 03:24:29 PM 36.1311 -92.6697 89° East 461 531 35,000  Level Memphis Center
Wed 03:25:29 PM 36.1361 -92.5056 88° East 472 543 35,000  Level Memphis Center
Wed 03:26:29 PM 36.1386 -92.3411 89° East 477 549 35,000  Level Memphis Center
Wed 03:27:29 PM 36.1433 -92.1767 88° East 477 549 35,000  Level Memphis Center
Wed 03:28:29 PM 36.1456 -92.0147 89° East 477 549 35,000  Level Memphis Center
Wed 03:29:29 PM 36.1478 -91.8478 89° East 477 549 35,000  Level Memphis Center
Wed 03:30:29 PM 36.1494 -91.6833 89° East 477 549 35,000  Level Memphis Center
Wed 03:31:29 PM 36.1511 -91.5239 89° East 472 543 35,000  Level Memphis Center
Wed 03:32:29 PM 36.1547 -91.3622 88° East 472 543 35,000  Level Memphis Center
Wed 03:33:29 PM 36.1558 -91.2053 89° East 467 537 35,000  Level Memphis Center
Wed 03:34:29 PM 36.1608 -91.0458 88° East 461 531 35,000  Level Memphis Center
Wed 03:35:29 PM 36.1617 -90.8892 90° East 456 525 35,000  Level Memphis Center
Wed 03:36:29 PM 36.1622 -90.7322 90° East 456 525 35,000  Level Memphis Center
Wed 03:37:29 PM 36.1647 -90.5731 89° East 456 525 35,000  Level Memphis Center
Wed 03:38:29 PM 36.1669 -90.4136 89° East 456 525 35,000  Level Memphis Center
Wed 03:39:29 PM 36.1669 -90.2517 90° East 461 531 35,000  Level Memphis Center
Wed 03:40:29 PM 36.1686 -90.0897 89° East 461 531 35,000  Level Memphis Center
Wed 03:41:29 PM 36.1683 -89.9278 90° East 461 531 35,000  Level Memphis Center
Wed 03:42:29 PM 36.1675 -89.7656 90° East 461 531 35,000  Level Memphis Center
Wed 03:43:29 PM 36.1667 -89.6036 90° East 461 531 35,000  Level Memphis Center
Wed 03:44:29 PM 36.1678 -89.4392 89° East 461 531 35,000  Level Memphis Center
Wed 03:45:29 PM 36.1664 -89.2747 91° East 467 537 35,000  Level Memphis Center
Wed 03:46:29 PM 36.1669 -89.1128 90° East 472 543 35,000  Level Memphis Center
Wed 03:47:29 PM 36.1694 -88.9481 89° East 472 543 35,000  Level Memphis Center
Wed 03:48:29 PM 36.1694 -88.7861 90° East 472 543 35,000  Level Memphis Center
Wed 03:49:29 PM 36.1694 -88.6242 90° East 472 543 35,000  Level Memphis Center
Wed 03:50:29 PM 36.1689 -88.4569 90° East 477 549 35,000  Level Memphis Center
Wed 03:51:29 PM 36.1664 -88.2925 91° East 477 549 35,000  Level Memphis Center
Wed 03:52:29 PM 36.1633 -88.1178 91° East 468 539 35,000  Level Memphis Center
Wed 03:53:29 PM 36.1603 -87.9483 91° East 476 548 35,000  Level Memphis Center
Wed 03:54:29 PM 36.1594 -87.8017 90° East 476 548 35,000  Level Memphis Center
Wed 03:55:29 PM 36.1558 -87.6347 91° East 476 548 35,000  Level Memphis Center
Wed 03:56:29 PM 36.1542 -87.4678 91° East 476 548 35,000  Level Memphis Center
Wed 03:57:29 PM 36.1500 -87.3008 92° East 476 548 35,000  Level Memphis Center
Wed 03:58:29 PM 36.1458 -87.1339 92° East 476 548 35,000  Level Memphis Center
Wed 03:59:29 PM 36.1392 -86.9644 93° East 476 548 35,000  Level Memphis Center
Wed 04:00:30 PM 36.1344 -86.7950 92° East 476 548 35,000  Level Memphis Center
Wed 04:01:29 PM 36.1608 -86.6294 79° East 482 555 35,000  Level Memphis Center
Wed 04:02:29 PM 36.2314 -86.4822 59° Northeast 481 554 35,000  Level Memphis Center
Wed 04:03:29 PM 36.3039 -86.3344 59° Northeast 490 564 35,000  Level Memphis Center
Wed 04:04:29 PM 36.3742 -86.1892 59° Northeast 501 577 35,000  Level Memphis Center
Wed 04:05:29 PM 36.4442 -86.0411 60° Northeast 496 571 35,000  Level Memphis Center
Wed 04:06:29 PM 36.5139 -85.8956 59° Northeast 496 571 35,000  Level Memphis Center
Wed 04:08:21 PM 36.6394 -85.6314 59° Northeast 485 558 35,000  Level Indianapolis Center
Wed 04:09:23 PM 36.7075 -85.4869 60° Northeast 480 552 35,000  Level Indianapolis Center
Wed 04:10:25 PM 36.7872 -85.3131 60° Northeast 479 551 35,000  Level Indianapolis Center
Wed 04:11:27 PM 36.8550 -85.1678 60° Northeast 482 555 35,000  Level Indianapolis Center
Wed 04:12:29 PM 36.9217 -85.0253 60° Northeast 477 549 35,000  Level Indianapolis Center
Wed 04:13:31 PM 36.9867 -84.8811 61° Northeast 475 547 35,000  Level Indianapolis Center
Wed 04:14:32 PM 37.0508 -84.7436 60° Northeast 479 551 35,000  Level Indianapolis Center
Wed 04:15:34 PM 37.1267 -84.5764 60° Northeast 475 547 35,000  Level Indianapolis Center
Wed 04:16:36 PM 37.1919 -84.4322 60° Northeast 475 547 35,000  Level Indianapolis Center
Wed 04:17:38 PM 37.2572 -84.2894 60° Northeast 473 544 35,000  Level Indianapolis Center
Wed 04:18:40 PM 37.3211 -84.1467 61° Northeast 471 542 35,000  Level Indianapolis Center
Wed 04:19:42 PM 37.3844 -84.0047 61° Northeast 467 537 35,000  Level Indianapolis Center
Wed 04:20:44 PM 37.4494 -83.8586 61° Northeast 474 545 35,000  Level Indianapolis Center
Wed 04:21:46 PM 37.5242 -83.6919 60° Northeast 470 541 35,000  Level Indianapolis Center
Wed 04:22:48 PM 37.5875 -83.5472 61° Northeast 470 541 35,000  Level Indianapolis Center
Wed 04:23:50 PM 37.6514 -83.4022 61° Northeast 471 542 35,000  Level Indianapolis Center
Wed 04:24:51 PM 37.7158 -83.2569 61° Northeast 472 543 35,000  Level Indianapolis Center
Wed 04:25:53 PM 37.7803 -83.1058 62° Northeast 486 559 35,000  Level Indianapolis Center
Wed 04:26:55 PM 37.8442 -82.9581 61° Northeast 481 554 35,000  Level Indianapolis Center
Wed 04:27:57 PM 37.9117 -82.7828 64° Northeast 483 556 35,000  Level Indianapolis Center
Wed 04:28:59 PM 37.9464 -82.6183 75° East 483 556 35,000  Level Indianapolis Center
Wed 04:30:01 PM 37.9806 -82.4544 75° East 481 554 35,000  Level Indianapolis Center
Wed 04:31:03 PM 38.0136 -82.2906 76° East 480 552 35,000  Level Indianapolis Center
Wed 04:32:05 PM 38.0517 -82.1064 75° East 484 557 35,000  Level Indianapolis Center
Wed 04:33:07 PM 38.0844 -81.9444 76° East 478 550 35,000  Level Indianapolis Center
Wed 04:34:09 PM 38.1181 -81.7797 75° East 483 556 35,000  Level Indianapolis Center
Wed 04:35:11 PM 38.1500 -81.6156 76° East 482 555 35,000  Level Indianapolis Center
Wed 04:36:13 PM 38.1828 -81.4506 76° East 484 557 35,000  Level Indianapolis Center
Wed 04:37:15 PM 38.2142 -81.2856 76° East 485 558 35,000  Level Indianapolis Center
Wed 04:38:17 PM 38.2486 -81.0850 78° East 487 560 35,000  Level Indianapolis Center
Wed 04:38:38 PM 38.2558 -81.0444 77° East 485 558 35,000  Level Washington Center
Wed 04:39:38 PM 38.2842 -80.8744 78° East 485 558 35,000  Level Washington Center
Wed 04:40:38 PM 38.3144 -80.7047 77° East 485 558 35,000  Level Washington Center
Wed 04:41:38 PM 38.3444 -80.5372 77° East 485 558 35,000 -600 Level Washington Center
Wed 04:42:38 PM 38.3750 -80.3511 78° East 490 564 33,800 -1,800 Descending Washington Center
Wed 04:43:38 PM 38.4044 -80.1836 77° East 490 564 31,400 -2,050 Descending Washington Center
Wed 04:44:38 PM 38.4339 -80.0131 78° East 485 558 29,700 -1,700 Descending Washington Center
Wed 04:45:38 PM 38.4608 -79.8394 79° East 485 558 28,000 -1,700 Descending Washington Center
Wed 04:46:38 PM 38.4875 -79.6739 78° East 485 558 26,300 -1,700 Descending Washington Center
Wed 04:47:38 PM 38.5133 -79.5242 78° East 472 543 24,600 -1,150 Descending Washington Center
Wed 04:48:38 PM 38.5372 -79.3661 79° East 467 537 24,000 -550 Descending Washington Center
Wed 04:49:38 PM 38.5656 -79.1897 78° East 470 541 23,500 -1,450 Descending Washington Center
Wed 04:50:38 PM 38.5886 -79.0472 78° East 452 520 21,100 -2,450 Descending Washington Center
Wed 04:51:38 PM 38.6158 -78.8892 78° East 428 493 18,600 -2,200 Descending Washington Center
Wed 04:52:38 PM 38.6403 -78.7625 76° East 406 467 16,700 -2,200 Descending Washington Center
Wed 04:53:38 PM 38.6753 -78.6153 73° East 391 450 14,200 -2,100 Descending Washington Center
Wed 04:54:38 PM 38.7053 -78.4967 72° East 391 450 12,500 -1,500 Descending Washington Center
Wed 04:55:38 PM 38.7331 -78.3833 73° East 364 419 11,200 -1,250 Descending Washington Center
Wed 04:56:38 PM 38.7850 -78.3028 50° Northeast 311 358 10,000 -1,100 Descending Washington Center
Wed 04:57:38 PM 38.8408 -78.2275 46° Northeast 301 346 9,000 -1,000 Descending Washington Center
Wed 04:58:38 PM 38.8742 -78.1328 66° East 289 333 8,000 -1,000 Descending Washington Center
Wed 04:59:38 PM 38.8969 -78.0347 73° East 277 319 7,000 -1,000 Descending Washington Center
Wed 05:00:38 PM 38.9219 -77.9369 72° East 277 319 6,000 -500 Descending Washington Center
Wed 05:01:38 PM 38.9489 -77.8283 72° East 282 325 6,000  Level Washington Center
Wed 05:02:38 PM 38.9631 -77.7406 78° East 282 325 6,000  Level Washington Center
Wed 05:04:37 PM 38.8833 -77.5833 123° Southeast 267 307 6,000 -168 Level Potomac TRACON
Wed 05:05:37 PM 38.8167 -77.5667 169° South 228 262 5,500 -950 Descending Potomac TRACON
Wed 05:06:37 PM 38.7667 -77.5500 165° South 245 282 4,100 -1,300 Descending Potomac TRACON
Wed 05:07:37 PM 38.8000 -77.4833 57° Northeast 223 257 2,900 -1,050 Descending Potomac TRACON
Wed 05:08:37 PM 38.8500 -77.4667 15° North 173 199 2,000 -850 Descending Potomac TRACON
Wed 05:09:37 PM 38.9000 -77.4667 360° North 139 160 1,200 -744 Descending Potomac TRACON
Wed 05:10:38 PM 38.9333 -77.4667 360° North 134 154 500 -689 Descending Potomac TRACON
Wed 05:12:00 PM 38.9333 -77.4500 159° South  Level FlightAware Approximate
Wed 05:19:00 PM 38.9474 -77.4599 159° South  Level Estimated
Wed 05:20:00 PM 38.9474 -77.4599 159° South  Level Estimated

Login

Don't have an account? Register now (free) for customized features, flight alerts, and more!